createdAt,value
2022-08-11T00:00:46.703Z,97.45
2022-08-11T00:01:54.070Z,98.01
2022-08-11T00:02:56.434Z,98.14
2022-08-11T00:04:03.317Z,98.28
2022-08-11T00:05:12.319Z,97.76
2022-08-11T00:06:23.192Z,98.27
2022-08-11T00:07:26.246Z,97.42
2022-08-11T00:08:32.330Z,96.71
2022-08-11T00:09:39.422Z,96.64
2022-08-11T00:10:41.872Z,96.95
2022-08-11T00:11:53.296Z,97.57
2022-08-11T00:13:04.245Z,97.92
2022-08-11T00:14:36.752Z,98.29
2022-08-11T00:15:43.671Z,98.36
2022-08-11T00:16:55.380Z,98.40
2022-08-11T00:18:01.176Z,98.21
2022-08-11T00:19:03.152Z,98.82
2022-08-11T00:20:15.901Z,99.30
2022-08-11T00:21:54.733Z,99.15
2022-08-11T00:22:45.147Z,99.54
2022-08-11T00:23:53.397Z,99.41
2022-08-11T00:25:01.618Z,99.88
2022-08-11T00:26:08.096Z,100.00
2022-08-11T00:27:09.635Z,99.68
2022-08-11T00:28:27.739Z,98.61
2022-08-11T00:29:29.689Z,99.07
2022-08-11T00:30:40.644Z,100.00
2022-08-11T00:31:49.497Z,100.00
2022-08-11T00:32:56.251Z,100.00
2022-08-11T00:34:01.052Z,100.00
2022-08-11T00:35:54.744Z,100.00
2022-08-11T00:36:39.001Z,100.00
2022-08-11T00:37:47.987Z,100.00
2022-08-11T00:38:52.138Z,100.00
2022-08-11T00:39:55.572Z,100.00
2022-08-11T00:41:08.276Z,100.00
2022-08-11T00:42:40.581Z,100.00
2022-08-11T00:44:00.804Z,100.00
2022-08-11T00:45:07.517Z,100.00
2022-08-11T00:46:27.225Z,100.00
2022-08-11T00:47:46.384Z,100.00
2022-08-11T00:49:06.794Z,100.00
2022-08-11T00:50:22.557Z,100.00
2022-08-11T00:52:04.725Z,100.00
2022-08-11T00:53:27.611Z,100.00
2022-08-11T00:54:33.123Z,100.00
2022-08-11T00:55:55.794Z,100.00
2022-08-11T00:57:37.181Z,100.00
2022-08-11T00:59:34.614Z,100.00
2022-08-11T01:01:03.390Z,100.00
2022-08-11T01:02:41.930Z,100.00
2022-08-11T01:04:09.965Z,100.00
2022-08-11T01:05:23.905Z,100.00
2022-08-11T01:06:46.597Z,100.00
2022-08-11T01:08:02.582Z,100.00
2022-08-11T01:09:23.549Z,100.00
2022-08-11T01:11:22.125Z,100.00
2022-08-11T01:12:45.107Z,100.00
2022-08-11T01:14:11.240Z,100.00
2022-08-11T01:15:38.894Z,100.00
2022-08-11T01:16:55.447Z,100.00
2022-08-11T01:18:21.403Z,100.00
2022-08-11T01:20:47.481Z,100.00
2022-08-11T01:22:05.090Z,100.00
2022-08-11T01:23:30.488Z,100.00
2022-08-11T01:24:50.597Z,100.00
2022-08-11T01:26:29.346Z,100.00
2022-08-11T01:27:49.145Z,100.00
2022-08-11T01:29:27.852Z,100.00
2022-08-11T01:30:55.540Z,100.00
2022-08-11T01:32:15.659Z,100.00
2022-08-11T01:33:48.190Z,100.00
2022-08-11T01:35:27.999Z,100.00
2022-08-11T01:37:02.113Z,100.00
2022-08-11T01:38:12.954Z,100.00
2022-08-11T01:39:32.802Z,100.00
2022-08-11T01:41:09.377Z,100.00
2022-08-11T01:42:35.069Z,100.00
2022-08-11T01:43:55.153Z,100.00
2022-08-11T01:45:25.160Z,100.00
2022-08-11T01:46:45.608Z,100.00
2022-08-11T01:48:22.672Z,100.00
2022-08-11T01:50:08.328Z,100.00
2022-08-11T01:51:17.937Z,100.00
2022-08-11T01:52:33.650Z,100.00
2022-08-11T01:53:42.517Z,100.00
2022-08-11T01:54:49.469Z,100.00
2022-08-11T01:56:07.849Z,100.00
2022-08-11T01:57:35.963Z,100.00
2022-08-11T01:59:05.510Z,100.00
2022-08-11T02:00:16.893Z,100.00
2022-08-11T02:01:36.412Z,100.00
2022-08-11T02:02:49.637Z,100.00
2022-08-11T02:04:03.063Z,100.00
2022-08-11T02:05:17.598Z,100.00
2022-08-11T02:06:40.490Z,100.00
2022-08-11T02:08:03.771Z,100.00
2022-08-11T02:09:20.103Z,100.00
2022-08-11T02:10:40.733Z,100.00
2022-08-11T02:11:48.056Z,100.00
2022-08-11T02:13:21.600Z,100.00
2022-08-11T02:15:04.629Z,100.00
2022-08-11T02:16:17.401Z,100.00
2022-08-11T02:17:37.593Z,100.00
2022-08-11T02:18:43.699Z,100.00
2022-08-11T02:20:25.010Z,100.00
2022-08-11T02:21:38.691Z,100.00
2022-08-11T02:23:01.837Z,100.00
2022-08-11T02:24:16.098Z,100.00
2022-08-11T02:25:38.888Z,100.00
2022-08-11T02:26:45.872Z,100.00
2022-08-11T02:28:01.059Z,100.00
2022-08-11T02:29:24.271Z,100.00
2022-08-11T02:30:31.369Z,100.00
2022-08-11T02:32:24.727Z,100.00
2022-08-11T02:33:16.813Z,100.00
2022-08-11T02:34:44.407Z,100.00
2022-08-11T02:36:24.908Z,100.00
2022-08-11T02:37:32.235Z,100.00
2022-08-11T02:38:48.157Z,100.00
2022-08-11T02:40:17.266Z,100.00
2022-08-11T02:41:50.146Z,100.00
2022-08-11T02:43:19.109Z,100.00
2022-08-11T02:44:57.815Z,100.00
2022-08-11T02:46:28.765Z,100.00
2022-08-11T02:47:46.875Z,100.00
2022-08-11T02:49:03.603Z,100.00
2022-08-11T02:50:29.355Z,100.00
2022-08-11T02:51:46.625Z,100.00
2022-08-11T02:52:59.175Z,100.00
2022-08-11T02:54:26.465Z,100.00
2022-08-11T02:56:06.660Z,100.00
2022-08-11T02:57:30.797Z,100.00
2022-08-11T02:58:51.488Z,100.00
2022-08-11T03:00:26.500Z,100.00
2022-08-11T03:01:41.021Z,100.00
2022-08-11T03:02:51.702Z,100.00
2022-08-11T03:04:10.745Z,100.00
2022-08-11T03:05:12.237Z,100.00
2022-08-11T03:06:41.246Z,100.00
2022-08-11T03:08:01.428Z,100.00
2022-08-11T03:09:08.788Z,100.00
2022-08-11T03:10:27.085Z,100.00
2022-08-11T03:11:34.275Z,100.00
2022-08-11T03:12:53.590Z,100.00
2022-08-11T03:14:07.626Z,100.00
2022-08-11T03:15:18.892Z,100.00
2022-08-11T03:16:45.485Z,100.00
2022-08-11T03:18:04.239Z,100.00
2022-08-11T03:19:28.291Z,100.00
2022-08-11T03:20:42.636Z,100.00
2022-08-11T03:22:02.933Z,100.00
2022-08-11T03:23:37.258Z,100.00
2022-08-11T03:25:00.548Z,100.00
2022-08-11T03:26:32.373Z,100.00
2022-08-11T03:27:52.664Z,100.00
2022-08-11T03:29:25.116Z,100.00
2022-08-11T03:30:45.376Z,100.00
2022-08-11T03:31:59.019Z,100.00
2022-08-11T03:33:15.329Z,100.00
2022-08-11T03:34:22.883Z,100.00
2022-08-11T03:35:24.630Z,100.00
2022-08-11T03:37:14.851Z,100.00
2022-08-11T03:38:18.708Z,100.00
2022-08-11T03:39:56.203Z,100.00
2022-08-11T03:41:49.353Z,100.00
2022-08-11T03:42:57.752Z,100.00
2022-08-11T03:44:25.393Z,100.00
2022-08-11T03:45:41.158Z,100.00
2022-08-11T03:47:11.465Z,100.00
2022-08-11T03:48:38.224Z,100.00
2022-08-11T03:49:58.481Z,100.00
2022-08-11T03:51:22.980Z,100.00
2022-08-11T03:52:46.722Z,100.00
2022-08-11T03:54:38.656Z,100.00
2022-08-11T03:55:56.837Z,100.00
2022-08-11T03:57:35.280Z,100.00
2022-08-11T03:59:14.173Z,100.00
2022-08-11T04:00:36.894Z,100.00
2022-08-11T04:01:48.080Z,100.00
2022-08-11T04:03:01.485Z,100.00
2022-08-11T04:04:28.851Z,100.00
2022-08-11T04:06:08.827Z,100.00
2022-08-11T04:07:17.514Z,100.00
2022-08-11T04:08:25.668Z,100.00
2022-08-11T04:10:13.145Z,100.00
2022-08-11T04:11:20.293Z,100.00
2022-08-11T04:13:06.069Z,100.00
2022-08-11T04:14:30.485Z,100.00
2022-08-11T04:15:49.932Z,100.00
2022-08-11T04:17:22.808Z,100.00
2022-08-11T04:18:53.889Z,100.00
2022-08-11T04:20:22.839Z,100.00
2022-08-11T04:21:55.726Z,100.00
2022-08-11T04:23:12.359Z,100.00
2022-08-11T04:25:11.057Z,100.00
2022-08-11T04:26:37.705Z,100.00
2022-08-11T04:28:31.307Z,100.00
2022-08-11T04:30:09.119Z,100.00
2022-08-11T04:31:51.960Z,100.00
2022-08-11T04:33:02.978Z,100.00
2022-08-11T04:34:32.635Z,100.00
2022-08-11T04:35:51.111Z,100.00
2022-08-11T04:37:12.585Z,100.00
2022-08-11T04:38:30.030Z,100.00
2022-08-11T04:40:05.764Z,100.00
2022-08-11T04:41:13.069Z,100.00
2022-08-11T04:42:32.739Z,100.00
2022-08-11T04:44:05.976Z,100.00
2022-08-11T04:45:35.567Z,100.00
2022-08-11T04:47:09.226Z,100.00
2022-08-11T04:48:16.670Z,100.00
2022-08-11T04:50:03.888Z,100.00
2022-08-11T04:52:02.035Z,100.00
2022-08-11T04:53:19.246Z,100.00
2022-08-11T04:54:32.640Z,100.00
2022-08-11T04:56:11.752Z,100.00
2022-08-11T04:57:37.449Z,100.00
2022-08-11T04:59:00.724Z,100.00
2022-08-11T05:00:10.797Z,100.00
2022-08-11T05:01:24.411Z,100.00
2022-08-11T05:02:55.326Z,100.00
2022-08-11T05:04:11.846Z,100.00
2022-08-11T05:05:23.423Z,100.00
2022-08-11T05:06:36.094Z,100.00
2022-08-11T05:08:28.680Z,100.00
2022-08-11T05:10:03.868Z,100.00
2022-08-11T05:11:30.592Z,100.00
2022-08-11T05:12:46.305Z,100.00
2022-08-11T05:14:04.470Z,100.00
2022-08-11T05:15:12.921Z,100.00
2022-08-11T05:16:19.618Z,100.00
2022-08-11T05:17:34.407Z,100.00
2022-08-11T05:18:45.774Z,100.00
2022-08-11T05:19:48.621Z,100.00
2022-08-11T05:20:58.689Z,100.00
2022-08-11T05:22:00.899Z,100.00
2022-08-11T05:23:05.671Z,100.00
2022-08-11T05:24:22.519Z,100.00
2022-08-11T05:26:43.828Z,100.00
2022-08-11T05:26:52.978Z,100.00
2022-08-11T05:28:05.812Z,100.00
2022-08-11T05:29:27.366Z,100.00
2022-08-11T05:30:34.452Z,100.00
2022-08-11T05:31:39.066Z,100.00
2022-08-11T05:32:43.783Z,100.00
2022-08-11T05:33:47.577Z,100.00
2022-08-11T05:34:53.656Z,100.00
2022-08-11T05:36:12.387Z,100.00
2022-08-11T05:37:31.023Z,100.00
2022-08-11T05:38:35.455Z,100.00
2022-08-11T05:39:46.776Z,100.00
2022-08-11T05:40:51.267Z,100.00
2022-08-11T05:41:59.041Z,100.00
2022-08-11T05:43:03.130Z,100.00
2022-08-11T05:44:19.964Z,100.00
2022-08-11T05:45:24.252Z,100.00
2022-08-11T05:46:27.948Z,100.00
2022-08-11T05:47:29.666Z,100.00
2022-08-11T05:48:34.513Z,99.39
2022-08-11T05:49:37.108Z,98.54
2022-08-11T05:50:40.187Z,98.13
2022-08-11T05:51:54.564Z,98.14
2022-08-11T05:52:57.712Z,98.83
2022-08-11T05:54:01.075Z,97.98
2022-08-11T05:55:07.375Z,95.60
2022-08-11T05:56:09.452Z,94.87
2022-08-11T05:57:49.954Z,93.80
2022-08-11T05:58:45.170Z,92.38
2022-08-11T05:59:47.686Z,92.03
2022-08-11T06:00:49.478Z,92.01
2022-08-11T06:01:52.282Z,91.48
2022-08-11T06:02:56.351Z,91.34
2022-08-11T06:04:06.752Z,91.84
2022-08-11T06:05:09.212Z,91.50
2022-08-11T06:06:12.016Z,90.94
2022-08-11T06:07:13.910Z,91.34
2022-08-11T06:08:15.611Z,91.47
2022-08-11T06:09:34.793Z,91.94
2022-08-11T06:10:39.322Z,91.97
2022-08-11T06:11:46.969Z,92.31
2022-08-11T06:12:53.387Z,91.93
2022-08-11T06:13:56.779Z,91.65
2022-08-11T06:15:02.170Z,91.82
2022-08-11T06:16:06.987Z,90.98
2022-08-11T06:17:09.092Z,90.77
2022-08-11T06:18:12.046Z,89.75
2022-08-11T06:19:13.949Z,88.13
2022-08-11T06:20:18.001Z,88.33
2022-08-11T06:21:21.970Z,88.20
2022-08-11T06:22:24.928Z,89.02
2022-08-11T06:23:33.512Z,89.37
2022-08-11T06:24:41.480Z,88.96
2022-08-11T06:25:43.120Z,87.88
2022-08-11T06:27:11.306Z,87.39
2022-08-11T06:28:15.985Z,86.01
2022-08-11T06:29:23.870Z,86.12
2022-08-11T06:30:45.590Z,84.88
2022-08-11T06:32:03.889Z,85.01
2022-08-11T06:33:10.109Z,85.13
2022-08-11T06:34:27.100Z,83.60
2022-08-11T06:35:59.675Z,83.61
2022-08-11T06:37:13.728Z,83.68
2022-08-11T06:38:21.286Z,84.26
2022-08-11T06:39:33.234Z,84.03
2022-08-11T06:40:51.075Z,83.69
2022-08-11T06:42:01.013Z,83.73
2022-08-11T06:43:27.441Z,83.40
2022-08-11T06:45:09.199Z,82.46
2022-08-11T06:46:24.697Z,82.66
2022-08-11T06:47:30.440Z,82.61
2022-08-11T06:48:33.545Z,81.99
2022-08-11T06:49:42.601Z,82.04
2022-08-11T06:50:50.793Z,81.36
2022-08-11T06:51:52.456Z,80.69
2022-08-11T06:52:54.421Z,79.11
2022-08-11T06:54:04.776Z,77.71
2022-08-11T06:55:55.884Z,78.15
2022-08-11T06:56:47.597Z,78.03
2022-08-11T06:57:49.272Z,76.73
2022-08-11T06:58:51.515Z,77.95
2022-08-11T06:59:54.274Z,77.04
2022-08-11T07:00:58.629Z,77.24
2022-08-11T07:02:09.379Z,76.97
2022-08-11T07:03:15.794Z,77.02
2022-08-11T07:04:36.103Z,75.66
2022-08-11T07:05:37.496Z,75.18
2022-08-11T07:07:01.500Z,74.38
2022-08-11T07:08:33.766Z,74.84
2022-08-11T07:10:19.320Z,74.49
2022-08-11T07:11:59.075Z,73.69
2022-08-11T07:13:01.224Z,73.90
2022-08-11T07:14:04.175Z,73.91
2022-08-11T07:15:09.591Z,73.47
2022-08-11T07:16:15.734Z,72.89
2022-08-11T07:17:22.664Z,73.37
2022-08-11T07:18:28.346Z,72.63
2022-08-11T07:19:31.049Z,72.43
2022-08-11T07:20:32.646Z,72.37
2022-08-11T07:22:00.362Z,71.59
2022-08-11T07:23:01.260Z,74.12
2022-08-11T07:24:08.142Z,72.43
2022-08-11T07:25:16.877Z,73.24
2022-08-11T07:26:21.838Z,72.92
2022-08-11T07:27:32.353Z,72.64
2022-08-11T07:28:42.272Z,73.21
2022-08-11T07:29:46.885Z,72.71
2022-08-11T07:30:51.885Z,72.31
2022-08-11T07:31:56.094Z,73.02
2022-08-11T07:33:00.893Z,72.43
2022-08-11T07:34:28.176Z,72.45
2022-08-11T07:35:45.668Z,72.56
2022-08-11T07:36:55.571Z,72.36
2022-08-11T07:38:04.102Z,71.15
2022-08-11T07:39:16.956Z,70.18
2022-08-11T07:40:25.849Z,70.28
2022-08-11T07:41:28.271Z,70.48
2022-08-11T07:42:34.465Z,72.96
2022-08-11T07:43:36.302Z,71.95
2022-08-11T07:44:40.258Z,70.57
2022-08-11T07:45:45.382Z,70.67
2022-08-11T07:46:49.245Z,70.97
2022-08-11T07:47:54.164Z,70.61
2022-08-11T07:48:56.641Z,69.72
2022-08-11T07:49:59.781Z,69.36
2022-08-11T07:51:02.270Z,69.98
2022-08-11T07:52:04.205Z,69.15
2022-08-11T07:53:06.148Z,69.55
2022-08-11T07:54:16.541Z,67.95
2022-08-11T07:55:20.927Z,68.85
2022-08-11T07:57:07.465Z,67.79
2022-08-11T07:58:15.050Z,67.16
2022-08-11T07:59:19.367Z,68.63
2022-08-11T08:00:24.474Z,68.20
2022-08-11T08:01:32.141Z,67.86
2022-08-11T08:02:35.289Z,66.64
2022-08-11T08:03:37.314Z,67.00
2022-08-11T08:04:44.173Z,67.79
2022-08-11T08:05:49.740Z,66.70
2022-08-11T08:06:52.398Z,67.46
2022-08-11T08:07:54.090Z,68.42
2022-08-11T08:08:57.767Z,67.31
2022-08-11T08:10:02.403Z,66.02
2022-08-11T08:11:04.375Z,65.95
2022-08-11T08:12:08.199Z,67.01
2022-08-11T08:13:09.966Z,67.47
2022-08-11T08:14:12.050Z,67.49
2022-08-11T08:15:15.770Z,68.17
2022-08-11T08:16:17.655Z,67.85
2022-08-11T08:17:21.404Z,67.42
2022-08-11T08:18:26.769Z,67.18
2022-08-11T08:19:29.774Z,67.51
2022-08-11T08:20:51.631Z,66.46
2022-08-11T08:21:54.014Z,65.53
2022-08-11T08:23:08.347Z,66.84
2022-08-11T08:24:10.432Z,67.13
2022-08-11T08:25:14.095Z,65.79
2022-08-11T08:26:16.838Z,66.02
2022-08-11T08:27:20.691Z,66.57
2022-08-11T08:28:22.407Z,67.04
2022-08-11T08:29:25.922Z,65.46
2022-08-11T08:30:28.620Z,66.51
2022-08-11T08:31:30.339Z,67.36
2022-08-11T08:32:32.622Z,65.28
2022-08-11T08:33:34.871Z,64.28
2022-08-11T08:34:37.634Z,66.01
2022-08-11T08:35:54.541Z,66.07
2022-08-11T08:36:58.366Z,63.60
2022-08-11T08:38:00.293Z,63.79
2022-08-11T08:39:02.070Z,63.07
2022-08-11T08:40:06.923Z,63.29
2022-08-11T08:41:10.017Z,63.71
2022-08-11T08:42:20.164Z,64.55
2022-08-11T08:43:23.631Z,63.59
2022-08-11T08:44:38.351Z,63.49
2022-08-11T08:45:43.276Z,62.86
2022-08-11T08:46:49.297Z,63.19
2022-08-11T08:48:02.563Z,63.08
2022-08-11T08:49:05.347Z,62.86
2022-08-11T08:50:16.708Z,63.38
2022-08-11T08:51:19.107Z,64.44
2022-08-11T08:52:33.205Z,64.68
2022-08-11T08:53:49.977Z,63.12
2022-08-11T08:54:58.141Z,61.10
2022-08-11T08:56:01.771Z,61.82
2022-08-11T08:57:07.925Z,61.92
2022-08-11T08:58:10.841Z,62.95
2022-08-11T08:59:14.619Z,62.88
2022-08-11T09:00:20.905Z,61.79
2022-08-11T09:01:27.190Z,61.79
2022-08-11T09:02:44.002Z,61.37
2022-08-11T09:04:04.737Z,62.75
2022-08-11T09:05:07.833Z,63.73
2022-08-11T09:06:10.356Z,62.89
2022-08-11T09:07:13.258Z,61.54
2022-08-11T09:08:17.289Z,60.64
2022-08-11T09:09:20.111Z,60.63
2022-08-11T09:10:21.602Z,61.02
2022-08-11T09:11:23.755Z,62.16
2022-08-11T09:12:36.599Z,62.03
2022-08-11T09:13:40.313Z,60.82
2022-08-11T09:14:43.960Z,59.49
2022-08-11T09:15:45.529Z,58.16
2022-08-11T09:16:47.537Z,58.69
2022-08-11T09:17:50.277Z,57.57
2022-08-11T09:18:52.501Z,60.26
2022-08-11T09:19:58.682Z,59.98
2022-08-11T09:21:02.209Z,60.25
2022-08-11T09:22:04.172Z,59.85
2022-08-11T09:24:28.755Z,57.85
2022-08-11T09:25:31.606Z,59.17
2022-08-11T09:26:33.760Z,60.35
2022-08-11T09:27:35.493Z,60.59
2022-08-11T09:28:37.128Z,60.34
2022-08-11T09:29:38.691Z,61.61
2022-08-11T09:30:44.281Z,61.59
2022-08-11T09:31:46.174Z,61.65
2022-08-11T09:32:47.952Z,62.02
2022-08-11T09:33:52.053Z,62.24
2022-08-11T09:34:54.218Z,62.42
2022-08-11T09:35:57.174Z,62.28
2022-08-11T09:36:59.155Z,63.54
2022-08-11T09:38:01.672Z,63.25
2022-08-11T09:39:04.681Z,62.52
2022-08-11T09:40:07.388Z,63.98
2022-08-11T09:41:09.647Z,63.41
2022-08-11T09:42:16.251Z,64.82
2022-08-11T09:43:19.096Z,64.26
2022-08-11T09:44:21.420Z,64.96
2022-08-11T09:45:22.872Z,65.88
2022-08-11T09:46:25.685Z,65.77
2022-08-11T09:47:30.221Z,66.75
2022-08-11T09:48:35.183Z,67.06
2022-08-11T09:49:37.543Z,67.29
2022-08-11T09:50:39.000Z,67.51
2022-08-11T09:51:41.433Z,67.12
2022-08-11T09:53:35.728Z,66.17
2022-08-11T09:54:25.192Z,66.70
2022-08-11T09:55:26.789Z,66.50
2022-08-11T09:56:29.215Z,66.38
2022-08-11T09:57:30.671Z,65.93
2022-08-11T09:58:41.756Z,66.07
2022-08-11T09:59:44.930Z,66.36
2022-08-11T10:00:48.407Z,66.71
2022-08-11T10:01:52.215Z,67.47
2022-08-11T10:02:55.739Z,68.97
2022-08-11T10:03:59.847Z,68.54
2022-08-11T10:05:01.646Z,68.95
2022-08-11T10:06:07.851Z,69.72
2022-08-11T10:07:10.065Z,69.72
2022-08-11T10:08:12.525Z,69.89
2022-08-11T10:09:17.924Z,70.56
2022-08-11T10:10:21.520Z,70.87
2022-08-11T10:11:24.566Z,71.19
2022-08-11T10:12:32.440Z,70.68
2022-08-11T10:14:31.006Z,68.80
2022-08-11T10:14:58.659Z,69.82
2022-08-11T10:16:14.511Z,70.02
2022-08-11T10:17:18.817Z,68.99
2022-08-11T10:18:24.246Z,69.56
2022-08-11T10:19:26.592Z,70.17
2022-08-11T10:20:29.305Z,70.24
2022-08-11T10:21:39.910Z,71.46
2022-08-11T10:22:42.168Z,73.25
2022-08-11T10:24:00.334Z,73.53
2022-08-11T10:25:04.888Z,73.24
2022-08-11T10:26:07.089Z,72.79
2022-08-11T10:27:08.534Z,70.90
2022-08-11T10:28:28.914Z,70.26
2022-08-11T10:29:36.852Z,70.08
2022-08-11T10:30:39.285Z,70.69
2022-08-11T10:31:57.987Z,70.23
2022-08-11T10:33:02.577Z,68.78
2022-08-11T10:34:09.605Z,67.32
2022-08-11T10:35:14.787Z,67.76
2022-08-11T10:36:18.367Z,67.93
2022-08-11T10:37:21.260Z,68.09
2022-08-11T10:38:22.898Z,68.16
2022-08-11T10:39:24.495Z,68.28
2022-08-11T10:40:26.525Z,68.68
2022-08-11T10:41:30.674Z,69.76
2022-08-11T10:42:55.164Z,68.77
2022-08-11T10:44:01.521Z,68.23
2022-08-11T10:45:05.351Z,68.29
2022-08-11T10:46:09.223Z,68.19
2022-08-11T10:47:11.689Z,67.93
2022-08-11T10:48:15.519Z,67.47
2022-08-11T10:49:18.715Z,67.49
2022-08-11T10:50:20.513Z,64.23
2022-08-11T10:51:42.836Z,63.52
2022-08-11T10:52:46.705Z,60.73
2022-08-11T10:53:50.707Z,62.65
2022-08-11T10:54:52.611Z,62.21
2022-08-11T10:55:54.680Z,62.36
2022-08-11T10:57:01.018Z,62.60
2022-08-11T10:58:04.144Z,62.61
2022-08-11T10:59:07.937Z,62.08
2022-08-11T11:00:12.067Z,60.83
2022-08-11T11:01:14.888Z,60.44
2022-08-11T11:02:16.638Z,59.42
2022-08-11T11:03:23.761Z,59.08
2022-08-11T11:04:45.577Z,59.05
2022-08-11T11:06:27.923Z,58.95
2022-08-11T11:07:22.423Z,57.43
2022-08-11T11:08:28.057Z,57.35
2022-08-11T11:09:34.434Z,56.54
2022-08-11T11:10:35.959Z,55.61
2022-08-11T11:11:38.405Z,56.16
2022-08-11T11:12:41.400Z,55.47
2022-08-11T11:13:53.293Z,55.32
2022-08-11T11:14:59.183Z,55.25
2022-08-11T11:16:00.752Z,55.47
2022-08-11T11:17:03.390Z,53.79
2022-08-11T11:18:07.069Z,54.30
2022-08-11T11:19:10.050Z,55.31
2022-08-11T11:20:36.918Z,55.98
2022-08-11T11:21:38.433Z,55.17
2022-08-11T11:22:41.176Z,55.46
2022-08-11T11:23:56.133Z,56.05
2022-08-11T11:25:08.627Z,55.11
2022-08-11T11:26:09.999Z,53.55
2022-08-11T11:27:11.423Z,54.75
2022-08-11T11:28:32.754Z,54.30
2022-08-11T11:29:34.106Z,55.13
2022-08-11T11:30:41.386Z,54.90
2022-08-11T11:31:42.778Z,55.13
2022-08-11T11:32:49.684Z,54.78
2022-08-11T11:34:06.836Z,54.43
2022-08-11T11:35:20.612Z,54.40
2022-08-11T11:37:03.245Z,54.78
2022-08-11T11:38:08.374Z,53.74
2022-08-11T11:39:12.143Z,54.93
2022-08-11T11:40:16.555Z,55.17
2022-08-11T11:41:17.971Z,53.94
2022-08-11T11:42:20.657Z,52.71
2022-08-11T11:43:22.158Z,53.22
2022-08-11T11:44:24.081Z,52.92
2022-08-11T11:45:25.681Z,53.50
2022-08-11T11:46:30.218Z,53.01
2022-08-11T11:47:32.702Z,51.99
2022-08-11T11:48:34.751Z,52.72
2022-08-11T11:49:36.516Z,51.59
2022-08-11T11:50:38.271Z,51.69
2022-08-11T11:51:39.845Z,51.88
2022-08-11T11:52:42.176Z,51.12
2022-08-11T11:53:44.715Z,51.67
2022-08-11T11:54:47.316Z,52.65
2022-08-11T11:55:48.959Z,51.10
2022-08-11T11:56:52.288Z,52.44
2022-08-11T11:57:59.063Z,52.42
2022-08-11T11:59:01.552Z,51.55
2022-08-11T12:00:06.765Z,51.95
2022-08-11T12:01:10.932Z,52.76
2022-08-11T12:02:14.836Z,52.39
2022-08-11T12:03:17.116Z,52.81
2022-08-11T12:04:19.984Z,51.19
2022-08-11T12:05:22.110Z,51.04
2022-08-11T12:06:24.107Z,52.38
2022-08-11T12:07:25.641Z,52.08
2022-08-11T12:08:27.970Z,51.48
2022-08-11T12:09:29.515Z,51.20
2022-08-11T12:10:31.667Z,51.12
2022-08-11T12:11:33.929Z,50.88
2022-08-11T12:12:35.427Z,50.83
2022-08-11T12:13:37.784Z,50.54
2022-08-11T12:14:39.212Z,51.08
2022-08-11T12:16:05.399Z,49.95
2022-08-11T12:17:02.524Z,50.26
2022-08-11T12:18:04.524Z,50.52
2022-08-11T12:19:11.012Z,50.34
2022-08-11T12:20:31.722Z,50.70
2022-08-11T12:21:35.799Z,50.34
2022-08-11T12:22:37.246Z,50.29
2022-08-11T12:23:40.001Z,49.42
2022-08-11T12:24:42.025Z,49.87
2022-08-11T12:25:44.478Z,47.97
2022-08-11T12:26:46.869Z,48.31
2022-08-11T12:28:08.281Z,48.18
2022-08-11T12:29:11.023Z,48.78
2022-08-11T12:30:12.986Z,49.18
2022-08-11T12:31:14.615Z,49.94
2022-08-11T12:32:16.074Z,50.79
2022-08-11T12:33:23.879Z,50.88
2022-08-11T12:34:27.336Z,50.61
2022-08-11T12:35:28.876Z,50.69
2022-08-11T12:36:31.989Z,50.78
2022-08-11T12:37:41.287Z,50.59
2022-08-11T12:38:46.715Z,49.22
2022-08-11T12:40:16.400Z,48.60
2022-08-11T12:41:17.316Z,49.73
2022-08-11T12:42:19.489Z,49.81
2022-08-11T12:43:24.207Z,49.95
2022-08-11T12:44:38.587Z,49.82
2022-08-11T12:45:41.049Z,50.00
2022-08-11T12:46:44.081Z,50.59
2022-08-11T12:48:40.234Z,50.52
2022-08-11T12:49:15.312Z,50.61
2022-08-11T12:50:22.688Z,51.26
2022-08-11T12:51:25.673Z,51.18
2022-08-11T12:52:29.840Z,50.83
2022-08-11T12:53:32.333Z,51.34
2022-08-11T12:54:49.985Z,51.68
2022-08-11T12:56:03.920Z,52.31
2022-08-11T12:57:12.377Z,52.75
2022-08-11T12:58:15.673Z,52.59
2022-08-11T12:59:17.463Z,52.33
2022-08-11T13:00:19.325Z,52.43
2022-08-11T13:01:20.972Z,52.27
2022-08-11T13:02:23.952Z,52.00
2022-08-11T13:03:29.768Z,52.24
2022-08-11T13:04:31.395Z,51.51
2022-08-11T13:05:33.277Z,51.87
2022-08-11T13:06:46.056Z,51.39
2022-08-11T13:07:50.715Z,51.21
2022-08-11T13:08:53.723Z,51.51
2022-08-11T13:09:57.349Z,51.47
2022-08-11T13:11:00.281Z,50.74
2022-08-11T13:12:01.963Z,50.46
2022-08-11T13:13:54.541Z,50.29
2022-08-11T13:14:30.305Z,50.49
2022-08-11T13:15:32.031Z,50.60
2022-08-11T13:16:35.115Z,49.25
2022-08-11T13:17:43.537Z,49.65
2022-08-11T13:18:46.309Z,49.02
2022-08-11T13:19:49.795Z,49.10
2022-08-11T13:20:55.820Z,47.73
2022-08-11T13:21:57.577Z,48.45
2022-08-11T13:22:59.752Z,50.10
2022-08-11T13:24:03.305Z,50.58
2022-08-11T13:25:05.806Z,49.31
2022-08-11T13:26:07.355Z,48.05
2022-08-11T13:27:09.009Z,47.92
2022-08-11T13:28:10.463Z,48.28
2022-08-11T13:29:12.225Z,47.90
2022-08-11T13:30:17.204Z,48.75
2022-08-11T13:31:18.644Z,48.25
2022-08-11T13:32:20.688Z,47.22
2022-08-11T13:33:22.394Z,47.27
2022-08-11T13:34:24.759Z,46.41
2022-08-11T13:35:27.821Z,47.00
2022-08-11T13:36:29.445Z,46.83
2022-08-11T13:38:19.810Z,48.24
2022-08-11T13:38:54.707Z,47.06
2022-08-11T13:39:56.201Z,47.30
2022-08-11T13:40:57.806Z,47.41
2022-08-11T13:42:00.809Z,47.45
2022-08-11T13:43:02.442Z,48.22
2022-08-11T13:44:04.486Z,48.33
2022-08-11T13:45:07.030Z,46.98
2022-08-11T13:46:08.460Z,47.28
2022-08-11T13:47:12.070Z,46.86
2022-08-11T13:48:13.845Z,47.29
2022-08-11T13:49:19.070Z,47.69
2022-08-11T13:50:20.634Z,47.66
2022-08-11T13:51:23.207Z,47.81
2022-08-11T13:52:37.105Z,47.48
2022-08-11T13:53:38.613Z,47.72
2022-08-11T13:54:40.728Z,47.56
2022-08-11T13:55:51.392Z,47.41
2022-08-11T13:56:57.762Z,47.61
2022-08-11T13:58:08.469Z,47.11
2022-08-11T13:59:23.831Z,46.41
2022-08-11T14:00:29.003Z,46.39
2022-08-11T14:02:23.023Z,46.22
2022-08-11T14:02:53.987Z,47.64
2022-08-11T14:04:31.083Z,47.54
2022-08-11T14:05:19.774Z,47.88
2022-08-11T14:06:22.048Z,47.96
2022-08-11T14:07:25.708Z,47.59
2022-08-11T14:08:37.277Z,47.74
2022-08-11T14:09:41.089Z,49.25
2022-08-11T14:10:43.935Z,48.95
2022-08-11T14:12:21.920Z,47.99
2022-08-11T14:13:08.775Z,48.10
2022-08-11T14:14:11.643Z,48.62
2022-08-11T14:15:17.905Z,49.63
2022-08-11T14:16:21.848Z,49.74
2022-08-11T14:17:47.131Z,49.18
2022-08-11T14:18:46.195Z,49.13
2022-08-11T14:19:50.837Z,48.69
2022-08-11T14:20:54.903Z,48.79
2022-08-11T14:21:59.334Z,48.94
2022-08-11T14:23:02.211Z,48.87
2022-08-11T14:24:03.922Z,48.88
2022-08-11T14:25:05.663Z,49.35
2022-08-11T14:26:08.778Z,49.02
2022-08-11T14:28:32.695Z,49.71
2022-08-11T14:28:40.053Z,50.17
2022-08-11T14:29:48.741Z,50.25
2022-08-11T14:30:50.322Z,50.26
2022-08-11T14:31:53.310Z,50.84
2022-08-11T14:32:56.298Z,50.86
2022-08-11T14:34:03.196Z,51.22
2022-08-11T14:35:05.685Z,51.79
2022-08-11T14:36:08.593Z,52.05
2022-08-11T14:37:11.911Z,52.13
2022-08-11T14:38:13.450Z,52.39
2022-08-11T14:39:16.163Z,52.39
2022-08-11T14:40:17.692Z,52.28
2022-08-11T14:41:20.902Z,53.09
2022-08-11T14:42:23.552Z,52.69
2022-08-11T14:44:05.835Z,53.14
2022-08-11T14:44:48.384Z,52.77
2022-08-11T14:45:57.641Z,52.76
2022-08-11T14:47:01.078Z,53.28
2022-08-11T14:48:05.391Z,53.30
2022-08-11T14:49:06.959Z,52.20
2022-08-11T14:50:12.826Z,52.40
2022-08-11T14:51:14.313Z,52.51
2022-08-11T14:52:17.271Z,52.27
2022-08-11T14:53:21.564Z,52.10
2022-08-11T14:54:25.549Z,52.07
2022-08-11T14:55:31.571Z,52.96
2022-08-11T14:56:33.026Z,52.97
2022-08-11T14:57:55.774Z,51.54
2022-08-11T14:58:58.030Z,51.99
2022-08-11T15:00:00.932Z,50.87
2022-08-11T15:01:03.415Z,50.68
2022-08-11T15:02:05.562Z,51.00
2022-08-11T15:03:07.901Z,50.25
2022-08-11T15:04:36.687Z,49.13
2022-08-11T15:05:31.383Z,48.31
2022-08-11T15:06:33.216Z,48.23
2022-08-11T15:07:35.042Z,48.01
2022-08-11T15:08:38.781Z,49.28
2022-08-11T15:09:56.252Z,49.16